createdAt,value
2018-10-17T00:01:39.304Z,97307.00
2018-10-17T00:04:08.637Z,97308.00
2018-10-17T00:06:37.956Z,97310.00
2018-10-17T00:09:10.161Z,97310.00
2018-10-17T00:11:39.741Z,97311.00
2018-10-17T00:14:09.325Z,97306.00
2018-10-17T00:16:38.941Z,97310.00
2018-10-17T00:19:08.753Z,97310.00
2018-10-17T00:21:38.383Z,97308.00
2018-10-17T00:24:07.993Z,97311.00
2018-10-17T00:26:37.644Z,97314.00
2018-10-17T00:29:07.335Z,97311.00
2018-10-17T00:31:42.789Z,97313.00
2018-10-17T00:34:12.440Z,97316.00
2018-10-17T00:36:42.041Z,97309.00
2018-10-17T00:39:12.153Z,97310.00
2018-10-17T00:41:42.052Z,97312.00
2018-10-17T00:44:11.354Z,97313.00
2018-10-17T00:46:40.707Z,97313.00
2018-10-17T00:49:10.056Z,97312.00
2018-10-17T00:51:39.413Z,97314.00
2018-10-17T00:54:08.719Z,97310.00
2018-10-17T00:56:38.012Z,97311.00
2018-10-17T00:59:12.701Z,97310.00
2018-10-17T01:01:41.951Z,97314.00
2018-10-17T01:04:11.559Z,97307.00
2018-10-17T01:06:41.268Z,97309.00
2018-10-17T01:09:15.484Z,97309.00
2018-10-17T01:11:44.874Z,97305.00
2018-10-17T01:14:14.160Z,97307.00
2018-10-17T01:16:43.476Z,97307.00
2018-10-17T01:19:12.889Z,97304.00
2018-10-17T01:21:42.220Z,97304.00
2018-10-17T01:24:11.530Z,97303.00
2018-10-17T01:26:41.144Z,97308.00
2018-10-17T01:29:10.593Z,97310.00
2018-10-17T01:31:39.884Z,97303.00
2018-10-17T01:34:09.276Z,97307.00
2018-10-17T01:36:38.593Z,97305.00
2018-10-17T01:39:10.336Z,97307.00
2018-10-17T01:41:39.645Z,97308.00
2018-10-17T01:44:09.467Z,97305.00
2018-10-17T01:46:38.792Z,97303.00
2018-10-17T01:49:08.112Z,97308.00
2018-10-17T01:51:37.400Z,97306.00
2018-10-17T01:54:06.804Z,97301.00
2018-10-17T01:56:36.096Z,97301.00
2018-10-17T01:59:06.046Z,97299.00
2018-10-17T02:01:35.583Z,97301.00
2018-10-17T02:04:05.052Z,97298.00
2018-10-17T02:06:38.108Z,97297.00
2018-10-17T02:09:09.568Z,97298.00
2018-10-17T02:11:39.220Z,97294.00
2018-10-17T02:14:08.988Z,97294.00
2018-10-17T02:16:38.502Z,97294.00
2018-10-17T02:19:07.844Z,97305.00
2018-10-17T02:21:37.133Z,97300.00
2018-10-17T02:24:07.580Z,97295.00
2018-10-17T02:26:36.904Z,97297.00
2018-10-17T02:29:06.855Z,97295.00
2018-10-17T02:31:41.637Z,97294.00
2018-10-17T02:34:11.996Z,97292.00
2018-10-17T02:36:42.372Z,97284.00
2018-10-17T02:39:12.249Z,97283.00
2018-10-17T02:41:46.268Z,97280.00
2018-10-17T02:44:15.541Z,97276.00
2018-10-17T02:46:44.880Z,97273.00
2018-10-17T02:49:14.320Z,97271.00
2018-10-17T02:51:43.620Z,97270.00
2018-10-17T02:54:12.917Z,97271.00
2018-10-17T02:56:42.257Z,97272.00
2018-10-17T02:59:11.661Z,97272.00
2018-10-17T03:01:40.851Z,97270.00
2018-10-17T03:04:10.174Z,97266.00
2018-10-17T03:06:39.470Z,97267.00
2018-10-17T03:09:09.859Z,97269.00
2018-10-17T03:11:39.501Z,97270.00
2018-10-17T03:14:08.792Z,97264.00
2018-10-17T03:16:38.501Z,97269.00
2018-10-17T03:19:07.917Z,97267.00
2018-10-17T03:21:37.185Z,97271.00
2018-10-17T03:24:06.940Z,97272.00
2018-10-17T03:26:36.259Z,97271.00
2018-10-17T03:29:05.891Z,97274.00
2018-10-17T03:31:35.136Z,97271.00
2018-10-17T03:34:04.572Z,97275.00
2018-10-17T03:36:33.941Z,97268.00
2018-10-17T03:39:03.265Z,97266.00
2018-10-17T03:41:32.638Z,97269.00
2018-10-17T03:44:01.965Z,97272.00
2018-10-17T03:46:31.446Z,97268.00
2018-10-17T03:49:00.801Z,97277.00
2018-10-17T03:51:30.117Z,97274.00
2018-10-17T03:53:59.864Z,97266.00
2018-10-17T03:56:29.482Z,97269.00
2018-10-17T03:58:58.821Z,97271.00
2018-10-17T04:01:28.228Z,97269.00
2018-10-17T04:03:57.920Z,97266.00
2018-10-17T04:06:27.242Z,97270.00
2018-10-17T04:08:56.531Z,97271.00
2018-10-17T04:11:26.337Z,97267.00
2018-10-17T04:13:55.678Z,97264.00
2018-10-17T04:16:25.044Z,97275.00
2018-10-17T04:18:54.405Z,97278.00
2018-10-17T04:21:23.909Z,97280.00
2018-10-17T04:23:53.257Z,97282.00
2018-10-17T04:26:22.675Z,97279.00
2018-10-17T04:28:52.224Z,97278.00
2018-10-17T04:31:21.660Z,97277.00
2018-10-17T04:33:51.092Z,97280.00
2018-10-17T04:36:20.628Z,97280.00
2018-10-17T04:38:50.089Z,97281.00
2018-10-17T04:41:19.562Z,97279.00
2018-10-17T04:43:48.842Z,97290.00
2018-10-17T04:46:18.237Z,97282.00
2018-10-17T04:48:47.686Z,97283.00
2018-10-17T04:51:17.064Z,97278.00
2018-10-17T04:53:47.078Z,97279.00
2018-10-17T04:56:16.836Z,97285.00
2018-10-17T04:58:52.695Z,97281.00
2018-10-17T05:01:22.185Z,97282.00
2018-10-17T05:03:51.833Z,97280.00
2018-10-17T05:06:21.153Z,97283.00
2018-10-17T05:08:50.823Z,97279.00
2018-10-17T05:11:20.228Z,97281.00
2018-10-17T05:13:49.548Z,97277.00
2018-10-17T05:16:18.929Z,97284.00
2018-10-17T05:18:48.214Z,97278.00
2018-10-17T05:21:17.519Z,97281.00
2018-10-17T05:23:46.821Z,97274.00
2018-10-17T05:26:16.107Z,97271.00
2018-10-17T05:28:45.410Z,97281.00
2018-10-17T05:31:14.871Z,97281.00
2018-10-17T05:33:44.120Z,97283.00
2018-10-17T05:36:14.525Z,97292.00
2018-10-17T05:38:50.226Z,97291.00
2018-10-17T05:41:19.533Z,97292.00
2018-10-17T05:47:04.693Z,97298.00
2018-10-17T05:49:34.009Z,97296.00
2018-10-17T05:52:03.321Z,97295.00
2018-10-17T05:54:32.620Z,97298.00
2018-10-17T05:57:01.966Z,97292.00
2018-10-17T05:59:31.270Z,97299.00
2018-10-17T06:02:01.759Z,97302.00
2018-10-17T06:04:31.101Z,97294.00
2018-10-17T06:07:00.627Z,97293.00
2018-10-17T06:12:53.823Z,97293.00
2018-10-17T06:15:23.160Z,97293.00
2018-10-17T06:17:52.581Z,97304.00
2018-10-17T06:20:21.977Z,97302.00
2018-10-17T06:22:51.470Z,97302.00
2018-10-17T06:25:20.765Z,97303.00
2018-10-17T06:31:00.787Z,97300.00
2018-10-17T06:33:30.141Z,97303.00
2018-10-17T06:35:59.446Z,97302.00
2018-10-17T06:38:28.733Z,97309.00
2018-10-17T06:40:58.328Z,97313.00
2018-10-17T06:43:27.860Z,97313.00
2018-10-17T06:45:57.353Z,97302.00
2018-10-17T06:48:26.717Z,97305.00
2018-10-17T06:50:56.034Z,97300.00
2018-10-17T06:53:25.357Z,97296.00
2018-10-17T06:55:54.733Z,97298.00
2018-10-17T06:58:24.030Z,97300.00
2018-10-17T07:00:53.420Z,97296.00
2018-10-17T07:03:22.717Z,97298.00
2018-10-17T07:05:52.168Z,97293.00
2018-10-17T07:08:21.487Z,97296.00
2018-10-17T07:10:51.168Z,97300.00
2018-10-17T07:13:20.720Z,97294.00
2018-10-17T07:15:50.071Z,97289.00
2018-10-17T07:18:19.557Z,97290.00
2018-10-17T07:20:48.973Z,97287.00
2018-10-17T07:23:18.402Z,97280.00
2018-10-17T07:25:47.782Z,97283.00
2018-10-17T07:28:17.122Z,97281.00
2018-10-17T07:30:46.426Z,97275.00
2018-10-17T07:33:15.776Z,97282.00
2018-10-17T07:35:45.228Z,97284.00
2018-10-17T07:38:14.472Z,97286.00
2018-10-17T07:40:43.941Z,97289.00
2018-10-17T07:43:13.267Z,97289.00
2018-10-17T07:45:42.859Z,97294.00
2018-10-17T07:48:12.150Z,97294.00
2018-10-17T07:50:41.421Z,97286.00
2018-10-17T07:53:10.832Z,97287.00
2018-10-17T07:55:40.278Z,97290.00
2018-10-17T07:58:09.628Z,97290.00
2018-10-17T08:00:38.936Z,97290.00
2018-10-17T08:03:08.266Z,97285.00
2018-10-17T08:05:37.637Z,97288.00
2018-10-17T08:08:07.429Z,97281.00
2018-10-17T08:10:36.869Z,97287.00
2018-10-17T08:13:06.697Z,97280.00
2018-10-17T08:15:36.086Z,97283.00
2018-10-17T08:18:05.853Z,97280.00
2018-10-17T08:20:35.231Z,97276.00
2018-10-17T08:23:05.383Z,97277.00
2018-10-17T08:25:35.374Z,97278.00
2018-10-17T08:28:04.745Z,97276.00
2018-10-17T08:30:34.046Z,97282.00
2018-10-17T08:33:04.051Z,97280.00
2018-10-17T08:35:33.416Z,97279.00
2018-10-17T08:38:02.850Z,97278.00
2018-10-17T08:40:32.201Z,97273.00
2018-10-17T08:43:01.522Z,97278.00
2018-10-17T08:45:30.878Z,97276.00
2018-10-17T08:48:00.236Z,97275.00
2018-10-17T08:50:29.650Z,97276.00
2018-10-17T08:52:59.059Z,97273.00
2018-10-17T08:55:28.502Z,97273.00
2018-10-17T08:57:59.034Z,97270.00
2018-10-17T09:00:28.959Z,97266.00
2018-10-17T09:02:58.522Z,97262.00
2018-10-17T09:05:28.488Z,97272.00
2018-10-17T09:07:58.225Z,97263.00
2018-10-17T09:10:27.854Z,97263.00
2018-10-17T09:12:57.554Z,97263.00
2018-10-17T09:15:27.250Z,97262.00
2018-10-17T09:17:57.024Z,97266.00
2018-10-17T09:20:26.775Z,97265.00
2018-10-17T09:22:56.218Z,97264.00
2018-10-17T09:25:25.905Z,97270.00
2018-10-17T09:27:55.637Z,97256.00
2018-10-17T09:30:25.254Z,97256.00
2018-10-17T09:32:54.792Z,97261.00
2018-10-17T09:35:24.566Z,97258.00
2018-10-17T09:37:54.129Z,97254.00
2018-10-17T09:40:23.762Z,97252.00
2018-10-17T09:42:53.483Z,97246.00
2018-10-17T09:45:23.117Z,97242.00
2018-10-17T09:47:52.838Z,97240.00
2018-10-17T09:50:22.451Z,97232.00
2018-10-17T09:52:52.263Z,97239.00
2018-10-17T09:55:21.898Z,97238.00
2018-10-17T09:57:51.549Z,97239.00
2018-10-17T10:00:26.487Z,97236.00
2018-10-17T10:02:56.198Z,97233.00
2018-10-17T10:05:25.818Z,97228.00
2018-10-17T10:07:55.517Z,97229.00
2018-10-17T10:10:25.202Z,97225.00
2018-10-17T10:12:54.885Z,97221.00
2018-10-17T10:15:24.527Z,97220.00
2018-10-17T10:17:54.151Z,97221.00
2018-10-17T10:20:23.849Z,97220.00
2018-10-17T10:22:53.568Z,97213.00
2018-10-17T10:25:23.374Z,97214.00
2018-10-17T10:27:53.044Z,97211.00
2018-10-17T10:30:22.635Z,97208.00
2018-10-17T10:32:52.438Z,97208.00
2018-10-17T10:35:22.047Z,97211.00
2018-10-17T10:37:51.748Z,97202.00
2018-10-17T10:40:21.352Z,97198.00
2018-10-17T10:42:51.019Z,97198.00
2018-10-17T10:45:20.955Z,97195.00
2018-10-17T10:47:50.487Z,97196.00
2018-10-17T10:50:20.179Z,97188.00
2018-10-17T10:52:49.946Z,97186.00
2018-10-17T10:55:19.450Z,97182.00
2018-10-17T10:57:49.112Z,97182.00
2018-10-17T11:00:18.835Z,97177.00
2018-10-17T11:02:48.410Z,97175.00
2018-10-17T11:05:18.042Z,97162.00
2018-10-17T11:07:47.699Z,97164.00
2018-10-17T11:10:17.286Z,97162.00
2018-10-17T11:12:46.983Z,97152.00
2018-10-17T11:15:16.531Z,97154.00
2018-10-17T11:17:46.191Z,97152.00
2018-10-17T11:20:15.841Z,97150.00
2018-10-17T11:22:45.483Z,97142.00
2018-10-17T11:25:15.168Z,97135.00
2018-10-17T11:27:45.247Z,97137.00
2018-10-17T11:30:15.170Z,97128.00
2018-10-17T11:32:44.861Z,97127.00
2018-10-17T11:35:14.533Z,97126.00
2018-10-17T11:37:44.150Z,97126.00
2018-10-17T11:40:13.833Z,97125.00
2018-10-17T11:42:43.482Z,97117.00
2018-10-17T11:45:13.171Z,97108.00
2018-10-17T11:47:42.801Z,97110.00
2018-10-17T11:50:12.535Z,97099.00
2018-10-17T11:52:42.136Z,97095.00
2018-10-17T11:55:11.773Z,97093.00
2018-10-17T11:57:41.362Z,97084.00
2018-10-17T12:00:13.130Z,97080.00
2018-10-17T12:02:42.793Z,97075.00
2018-10-17T12:05:14.511Z,97075.00
2018-10-17T12:07:44.267Z,97068.00
2018-10-17T12:10:13.862Z,97061.00
2018-10-17T12:12:43.521Z,97062.00
2018-10-17T12:15:14.978Z,97060.00
2018-10-17T12:17:44.475Z,97058.00
2018-10-17T12:20:15.210Z,97051.00
2018-10-17T12:22:45.724Z,97049.00
2018-10-17T12:25:15.798Z,97050.00
2018-10-17T12:27:45.455Z,97045.00
2018-10-17T12:30:15.911Z,97043.00
2018-10-17T12:32:45.418Z,97042.00
2018-10-17T12:35:15.177Z,97038.00
2018-10-17T12:37:44.758Z,97029.00
2018-10-17T12:40:14.367Z,97024.00
2018-10-17T12:42:43.943Z,97026.00
2018-10-17T12:45:13.583Z,97017.00
2018-10-17T12:47:43.310Z,97020.00
2018-10-17T12:50:13.021Z,97018.00
2018-10-17T12:52:42.678Z,97017.00
2018-10-17T12:55:12.208Z,97018.00
2018-10-17T12:57:41.824Z,97021.00
2018-10-17T13:00:11.698Z,97017.00
2018-10-17T13:02:41.327Z,97012.00
2018-10-17T13:05:11.697Z,97013.00
2018-10-17T13:07:41.272Z,97017.00
2018-10-17T13:13:19.346Z,97007.00
2018-10-17T13:15:48.954Z,97002.00
2018-10-17T13:18:18.571Z,97001.00
2018-10-17T13:20:49.041Z,97000.00
2018-10-17T13:23:18.828Z,97000.00
2018-10-17T13:25:48.324Z,97001.00
2018-10-17T13:28:17.987Z,96998.00
2018-10-17T13:30:47.563Z,96993.00
2018-10-17T13:33:17.265Z,96991.00
2018-10-17T13:35:46.900Z,96991.00
2018-10-17T13:38:25.980Z,96985.00
2018-10-17T13:40:55.612Z,96989.00
2018-10-17T13:43:25.223Z,96994.00
2018-10-17T13:45:54.837Z,96990.00
2018-10-17T13:48:24.438Z,96986.00
2018-10-17T13:50:54.000Z,96991.00
2018-10-17T13:53:23.678Z,96985.00
2018-10-17T13:55:53.254Z,96985.00
2018-10-17T13:58:30.271Z,96980.00
2018-10-17T14:01:00.010Z,96984.00
2018-10-17T14:03:29.458Z,96974.00
2018-10-17T14:05:59.079Z,96976.00
2018-10-17T14:08:28.675Z,96972.00
2018-10-17T14:10:58.382Z,96972.00
2018-10-17T14:13:28.106Z,96972.00
2018-10-17T14:15:57.763Z,96978.00
2018-10-17T14:18:32.068Z,96976.00
2018-10-17T14:21:02.830Z,96974.00
2018-10-17T14:23:32.546Z,96970.00
2018-10-17T14:26:02.086Z,96970.00
2018-10-17T14:28:31.678Z,96963.00
2018-10-17T14:31:03.341Z,96959.00
2018-10-17T14:33:32.959Z,96965.00
2018-10-17T14:36:02.487Z,96958.00
2018-10-17T14:38:32.148Z,96957.00
2018-10-17T14:41:01.794Z,96963.00
2018-10-17T14:43:31.479Z,96965.00
2018-10-17T14:46:01.072Z,96961.00
2018-10-17T14:48:42.611Z,96961.00
2018-10-17T14:51:13.546Z,96962.00
2018-10-17T14:53:50.191Z,96963.00
2018-10-17T14:56:20.692Z,96959.00
2018-10-17T14:58:50.321Z,96964.00
2018-10-17T15:01:37.129Z,96960.00
2018-10-17T15:04:07.145Z,96964.00
2018-10-17T15:06:37.981Z,96965.00
2018-10-17T15:09:09.424Z,96967.00
2018-10-17T15:11:40.165Z,96968.00
2018-10-17T15:14:14.147Z,96970.00
2018-10-17T15:16:43.837Z,96968.00
2018-10-17T15:19:13.301Z,96973.00
2018-10-17T15:21:44.265Z,96963.00
2018-10-17T15:24:13.672Z,96963.00
2018-10-17T15:26:43.781Z,96966.00
2018-10-17T15:29:18.736Z,96970.00
2018-10-17T15:31:48.477Z,96966.00
2018-10-17T15:34:19.207Z,96967.00
2018-10-17T15:36:48.939Z,96975.00
2018-10-17T15:39:18.646Z,96977.00
2018-10-17T15:41:48.495Z,96969.00
2018-10-17T15:44:30.958Z,96972.00
2018-10-17T15:47:00.589Z,96972.00
2018-10-17T15:49:30.990Z,96967.00
2018-10-17T15:52:01.055Z,96966.00
2018-10-17T15:54:30.622Z,96972.00
2018-10-17T15:57:00.269Z,96970.00
2018-10-17T15:59:30.961Z,96968.00
2018-10-17T16:02:06.666Z,96966.00
2018-10-17T16:04:36.368Z,96971.00
2018-10-17T16:07:06.509Z,96974.00
2018-10-17T16:09:37.255Z,96982.00
2018-10-17T16:12:07.107Z,96977.00
2018-10-17T16:14:36.737Z,96975.00
2018-10-17T16:17:06.486Z,96980.00
2018-10-17T16:19:36.363Z,96983.00
2018-10-17T16:22:06.835Z,96982.00
2018-10-17T16:24:36.807Z,96985.00
2018-10-17T16:27:06.899Z,96989.00
2018-10-17T16:29:36.582Z,96989.00
2018-10-17T16:32:06.803Z,96995.00
2018-10-17T16:34:36.360Z,96998.00
2018-10-17T16:37:06.795Z,97007.00
2018-10-17T16:39:36.483Z,97007.00
2018-10-17T16:42:07.043Z,97009.00
2018-10-17T16:44:36.635Z,97010.00
2018-10-17T16:47:06.625Z,97014.00
2018-10-17T16:49:36.315Z,97010.00
2018-10-17T16:52:06.943Z,97016.00
2018-10-17T16:54:37.038Z,97011.00
2018-10-17T16:57:08.552Z,97011.00
2018-10-17T16:59:38.735Z,97019.00
2018-10-17T17:02:09.571Z,97020.00
2018-10-17T17:04:39.257Z,97019.00
2018-10-17T17:07:09.019Z,97022.00
2018-10-17T17:09:38.735Z,97019.00
2018-10-17T17:12:08.541Z,97017.00
2018-10-17T17:14:38.212Z,97029.00
2018-10-17T17:17:08.120Z,97030.00
2018-10-17T17:19:37.980Z,97033.00
2018-10-17T17:22:07.753Z,97039.00
2018-10-17T17:24:43.043Z,97045.00
2018-10-17T17:27:12.772Z,97048.00
2018-10-17T17:29:42.389Z,97050.00
2018-10-17T17:32:11.987Z,97052.00
2018-10-17T17:34:41.696Z,97059.00
2018-10-17T17:37:11.388Z,97064.00
2018-10-17T17:39:41.115Z,97062.00
2018-10-17T17:42:10.864Z,97068.00
2018-10-17T17:44:40.594Z,97065.00
2018-10-17T17:47:10.307Z,97064.00
2018-10-17T17:49:39.902Z,97062.00
2018-10-17T17:52:11.094Z,97065.00
2018-10-17T17:54:41.369Z,97068.00
2018-10-17T17:57:13.142Z,97070.00
2018-10-17T17:59:48.953Z,97079.00
2018-10-17T18:02:25.095Z,97083.00
2018-10-17T18:04:59.523Z,97080.00
2018-10-17T18:07:42.107Z,97087.00
2018-10-17T18:10:15.286Z,97085.00
2018-10-17T18:12:45.109Z,97087.00
2018-10-17T18:15:15.262Z,97092.00
2018-10-17T18:17:59.259Z,97091.00
2018-10-17T18:20:28.948Z,97092.00
2018-10-17T18:23:17.071Z,97093.00
2018-10-17T18:25:47.046Z,97096.00
2018-10-17T18:28:17.331Z,97099.00
2018-10-17T18:30:53.226Z,97099.00
2018-10-17T18:33:23.070Z,97098.00
2018-10-17T18:36:03.685Z,97094.00
2018-10-17T18:38:43.016Z,97096.00
2018-10-17T18:41:25.392Z,97096.00
2018-10-17T18:43:55.355Z,97104.00
2018-10-17T18:46:25.655Z,97102.00
2018-10-17T18:48:55.562Z,97107.00
2018-10-17T18:51:25.186Z,97112.00
2018-10-17T18:54:05.379Z,97110.00
2018-10-17T18:56:35.244Z,97114.00
2018-10-17T19:02:06.742Z,97115.00
2018-10-17T19:04:54.936Z,97116.00
2018-10-17T19:07:28.391Z,97121.00
2018-10-17T19:09:58.327Z,97122.00
2018-10-17T19:12:27.955Z,97119.00
2018-10-17T19:14:57.714Z,97127.00
2018-10-17T19:17:27.487Z,97126.00
2018-10-17T19:20:08.713Z,97122.00
2018-10-17T19:22:38.510Z,97129.00
2018-10-17T19:25:08.763Z,97128.00
2018-10-17T19:27:38.936Z,97134.00
2018-10-17T19:30:10.313Z,97129.00
2018-10-17T19:32:40.216Z,97127.00
2018-10-17T19:35:10.016Z,97135.00
2018-10-17T19:37:39.744Z,97130.00
2018-10-17T19:40:12.066Z,97134.00
2018-10-17T19:42:51.670Z,97134.00
2018-10-17T19:45:21.263Z,97139.00
2018-10-17T19:47:51.075Z,97141.00
2018-10-17T19:50:21.043Z,97141.00
2018-10-17T19:52:51.495Z,97133.00
2018-10-17T19:55:21.366Z,97132.00
2018-10-17T19:57:55.533Z,97134.00
2018-10-17T20:00:25.545Z,97131.00
2018-10-17T20:02:55.466Z,97130.00
2018-10-17T20:05:25.479Z,97130.00
2018-10-17T20:07:55.112Z,97133.00
2018-10-17T20:10:25.107Z,97136.00
2018-10-17T20:12:54.723Z,97131.00
2018-10-17T20:15:24.564Z,97137.00
2018-10-17T20:18:05.666Z,97135.00
2018-10-17T20:20:41.458Z,97139.00
2018-10-17T20:23:11.740Z,97139.00
2018-10-17T20:25:41.569Z,97143.00
2018-10-17T20:28:11.308Z,97145.00
2018-10-17T20:30:41.031Z,97139.00
2018-10-17T20:33:10.657Z,97139.00
2018-10-17T20:35:40.263Z,97140.00
2018-10-17T20:38:09.978Z,97135.00
2018-10-17T20:40:39.725Z,97140.00
2018-10-17T20:43:09.466Z,97140.00
2018-10-17T20:45:41.170Z,97150.00
2018-10-17T20:48:10.839Z,97147.00
2018-10-17T20:50:40.548Z,97158.00
2018-10-17T20:53:14.317Z,97158.00
2018-10-17T20:55:44.083Z,97161.00
2018-10-17T20:58:13.905Z,97156.00
2018-10-17T21:00:43.583Z,97161.00
2018-10-17T21:03:13.166Z,97163.00
2018-10-17T21:05:42.932Z,97164.00
2018-10-17T21:08:12.741Z,97165.00
2018-10-17T21:10:48.255Z,97167.00
2018-10-17T21:13:26.085Z,97165.00
2018-10-17T21:15:56.138Z,97168.00
2018-10-17T21:18:29.449Z,97171.00
2018-10-17T21:21:10.660Z,97175.00
2018-10-17T21:23:40.423Z,97172.00
2018-10-17T21:26:10.427Z,97175.00
2018-10-17T21:28:52.378Z,97176.00
2018-10-17T21:31:22.167Z,97174.00
2018-10-17T21:33:51.938Z,97174.00
2018-10-17T21:36:21.767Z,97179.00
2018-10-17T21:38:51.467Z,97175.00
2018-10-17T21:41:21.135Z,97177.00
2018-10-17T21:43:50.787Z,97177.00
2018-10-17T21:46:20.872Z,97174.00
2018-10-17T21:48:50.559Z,97171.00
2018-10-17T21:51:29.665Z,97163.00
2018-10-17T21:53:59.478Z,97162.00
2018-10-17T21:56:29.074Z,97157.00
2018-10-17T21:58:58.661Z,97154.00
2018-10-17T22:01:28.273Z,97155.00
2018-10-17T22:03:57.926Z,97155.00
2018-10-17T22:06:27.503Z,97162.00
2018-10-17T22:08:57.372Z,97169.00
2018-10-17T22:11:27.078Z,97165.00
2018-10-17T22:13:56.677Z,97170.00
2018-10-17T22:16:31.577Z,97169.00
2018-10-17T22:22:02.827Z,97166.00
2018-10-17T22:24:32.487Z,97170.00
2018-10-17T22:27:02.085Z,97167.00
2018-10-17T22:29:31.622Z,97169.00
2018-10-17T22:32:01.326Z,97168.00
2018-10-17T22:34:47.212Z,97170.00
2018-10-17T22:37:16.898Z,97171.00
2018-10-17T22:39:46.547Z,97178.00
2018-10-17T22:42:16.238Z,97182.00
2018-10-17T22:44:45.830Z,97178.00
2018-10-17T22:47:15.455Z,97181.00
2018-10-17T22:49:45.018Z,97176.00
2018-10-17T22:52:14.593Z,97176.00
2018-10-17T22:54:44.219Z,97175.00
2018-10-17T22:57:14.095Z,97168.00
2018-10-17T22:59:43.679Z,97164.00
2018-10-17T23:02:13.375Z,97164.00
2018-10-17T23:04:42.954Z,97165.00
2018-10-17T23:07:12.723Z,97171.00
2018-10-17T23:09:42.398Z,97163.00
2018-10-17T23:12:12.122Z,97167.00
2018-10-17T23:14:41.740Z,97163.00
2018-10-17T23:17:11.359Z,97166.00
2018-10-17T23:19:40.986Z,97162.00
2018-10-17T23:22:10.573Z,97165.00
2018-10-17T23:24:40.154Z,97163.00
2018-10-17T23:27:09.778Z,97166.00
2018-10-17T23:29:39.431Z,97169.00
2018-10-17T23:32:09.170Z,97167.00
2018-10-17T23:34:38.734Z,97160.00
2018-10-17T23:37:08.456Z,97165.00
2018-10-17T23:39:38.246Z,97162.00
2018-10-17T23:42:08.311Z,97165.00
2018-10-17T23:44:37.974Z,97164.00
2018-10-17T23:47:07.583Z,97161.00
2018-10-17T23:49:37.266Z,97162.00
2018-10-17T23:52:07.201Z,97163.00
2018-10-17T23:54:36.840Z,97162.00
2018-10-17T23:57:06.728Z,97170.00
2018-10-17T23:59:36.374Z,97164.00
